createdAt,value
2023-03-17T00:01:21.718Z,94870.13
2023-03-17T00:03:50.391Z,94873.56
2023-03-17T00:06:21.339Z,94870.19
2023-03-17T00:08:48.130Z,94865.31
2023-03-17T00:11:17.480Z,94857.63
2023-03-17T00:13:45.197Z,94858.44
2023-03-17T00:16:25.342Z,94849.75
2023-03-17T00:18:53.853Z,94849.19
2023-03-17T00:21:32.202Z,94849.53
2023-03-17T00:23:59.904Z,94845.38
2023-03-17T00:26:27.744Z,94844.50
2023-03-17T00:28:55.090Z,94844.56
2023-03-17T00:31:25.274Z,94832.91
2023-03-17T00:33:54.157Z,94829.44
2023-03-17T00:36:39.010Z,94827.63
2023-03-17T00:41:40.053Z,94827.84
2023-03-17T00:44:06.695Z,94836.31
2023-03-17T00:46:37.891Z,94836.31
2023-03-17T00:51:42.869Z,94838.03
2023-03-17T00:54:10.747Z,94845.84
2023-03-17T00:56:39.512Z,94839.78
2023-03-17T00:59:21.872Z,94839.41
2023-03-17T01:01:49.290Z,94847.19
2023-03-17T01:04:16.262Z,94842.75
2023-03-17T01:06:43.230Z,94832.72
2023-03-17T01:09:14.832Z,94834.63
2023-03-17T01:11:42.101Z,94839.78
2023-03-17T01:14:10.720Z,94828.97
2023-03-17T01:16:38.861Z,94814.59
2023-03-17T01:19:06.037Z,94814.34
2023-03-17T01:21:33.024Z,94811.06
2023-03-17T01:24:00.535Z,94820.75
2023-03-17T01:26:27.590Z,94814.66
2023-03-17T01:28:54.730Z,94806.63
2023-03-17T01:31:23.050Z,94807.81
2023-03-17T01:33:50.897Z,94798.91
2023-03-17T01:36:17.763Z,94795.00
2023-03-17T01:38:47.932Z,94787.06
2023-03-17T01:41:14.741Z,94789.31
2023-03-17T01:43:41.851Z,94786.13
2023-03-17T01:46:27.560Z,94782.44
2023-03-17T01:49:19.924Z,94786.81
2023-03-17T01:52:12.571Z,94780.06
2023-03-17T01:54:50.450Z,94782.69
2023-03-17T01:57:27.017Z,94776.16
2023-03-17T01:59:58.158Z,94772.88
2023-03-17T02:02:31.144Z,94771.28
2023-03-17T02:04:58.413Z,94762.13
2023-03-17T02:07:26.790Z,94768.06
2023-03-17T02:09:55.245Z,94759.41
2023-03-17T02:12:22.632Z,94747.56
2023-03-17T02:14:50.032Z,94744.06
2023-03-17T02:17:16.570Z,94737.28
2023-03-17T02:19:43.416Z,94731.13
2023-03-17T02:22:10.800Z,94734.13
2023-03-17T02:24:41.703Z,94731.84
2023-03-17T02:27:19.016Z,94725.78
2023-03-17T02:29:46.422Z,94727.78
2023-03-17T02:32:15.153Z,94727.16
2023-03-17T02:34:41.899Z,94723.50
2023-03-17T02:37:08.575Z,94723.16
2023-03-17T02:39:36.609Z,94717.03
2023-03-17T02:42:05.413Z,94725.59
2023-03-17T02:44:34.287Z,94718.19
2023-03-17T02:47:01.189Z,94715.56
2023-03-17T02:49:28.587Z,94720.63
2023-03-17T02:51:55.243Z,94724.00
2023-03-17T02:54:21.859Z,94727.25
2023-03-17T02:56:48.613Z,94722.19
2023-03-17T02:59:16.205Z,94716.66
2023-03-17T03:01:43.377Z,94716.41
2023-03-17T03:04:10.111Z,94709.59
2023-03-17T03:06:37.442Z,94711.88
2023-03-17T03:09:04.120Z,94713.31
2023-03-17T03:11:31.260Z,94713.03
2023-03-17T03:13:57.830Z,94710.13
2023-03-17T03:16:24.389Z,94707.59
2023-03-17T03:18:51.412Z,94709.25
2023-03-17T03:21:18.559Z,94715.84
2023-03-17T03:23:45.274Z,94713.03
2023-03-17T03:26:12.264Z,94709.09
2023-03-17T03:28:39.275Z,94706.63
2023-03-17T03:31:07.700Z,94709.63
2023-03-17T03:33:34.820Z,94705.63
2023-03-17T03:36:01.584Z,94704.00
2023-03-17T03:38:28.727Z,94706.44
2023-03-17T03:40:55.838Z,94710.88
2023-03-17T03:43:24.047Z,94702.91
2023-03-17T03:45:51.892Z,94701.28
2023-03-17T03:48:19.176Z,94698.56
2023-03-17T03:50:45.829Z,94699.28
2023-03-17T03:53:13.673Z,94710.41
2023-03-17T03:55:40.848Z,94710.88
2023-03-17T03:58:08.876Z,94706.31
2023-03-17T04:00:35.587Z,94701.25
2023-03-17T04:03:02.174Z,94699.19
2023-03-17T04:05:29.060Z,94696.53
2023-03-17T04:07:55.595Z,94696.44
2023-03-17T04:10:23.400Z,94695.25
2023-03-17T04:12:49.960Z,94688.25
2023-03-17T04:15:19.675Z,94690.78
2023-03-17T04:17:46.457Z,94683.19
2023-03-17T04:20:15.679Z,94687.47
2023-03-17T04:22:42.680Z,94686.66
2023-03-17T04:25:11.796Z,94686.66
2023-03-17T04:27:38.600Z,94694.97
2023-03-17T04:30:06.025Z,94695.59
2023-03-17T04:32:33.152Z,94694.16
2023-03-17T04:35:00.158Z,94702.59
2023-03-17T04:37:26.732Z,94702.69
2023-03-17T04:39:55.040Z,94695.53
2023-03-17T04:42:21.918Z,94694.09
2023-03-17T04:44:48.450Z,94691.72
2023-03-17T04:47:15.433Z,94688.41
2023-03-17T04:49:42.230Z,94686.50
2023-03-17T04:52:09.053Z,94683.25
2023-03-17T04:54:36.386Z,94681.63
2023-03-17T04:57:03.063Z,94692.31
2023-03-17T04:59:29.717Z,94696.59
2023-03-17T05:01:56.492Z,94700.56
2023-03-17T05:04:31.136Z,94704.19
2023-03-17T05:06:59.482Z,94703.00
2023-03-17T05:09:27.406Z,94708.78
2023-03-17T05:11:54.604Z,94706.09
2023-03-17T05:14:21.349Z,94703.56
2023-03-17T05:16:48.774Z,94701.03
2023-03-17T05:19:16.586Z,94696.03
2023-03-17T05:21:43.713Z,94706.78
2023-03-17T05:24:10.759Z,94708.63
2023-03-17T05:26:37.919Z,94708.97
2023-03-17T05:29:04.776Z,94699.22
2023-03-17T05:31:31.887Z,94695.69
2023-03-17T05:33:59.046Z,94697.56
2023-03-17T05:36:25.928Z,94689.34
2023-03-17T05:38:52.757Z,94693.59
2023-03-17T05:41:19.783Z,94698.75
2023-03-17T05:43:46.961Z,94700.09
2023-03-17T05:46:13.745Z,94692.03
2023-03-17T05:48:40.708Z,94699.75
2023-03-17T05:51:08.052Z,94697.47
2023-03-17T05:53:36.383Z,94691.84
2023-03-17T05:56:04.108Z,94680.50
2023-03-17T05:58:30.819Z,94676.69
2023-03-17T06:00:57.536Z,94680.19
2023-03-17T06:03:24.443Z,94685.09
2023-03-17T06:05:51.781Z,94680.34
2023-03-17T06:08:18.373Z,94684.13
2023-03-17T06:10:45.242Z,94680.56
2023-03-17T06:13:12.080Z,94680.91
2023-03-17T06:15:38.791Z,94677.81
2023-03-17T06:18:05.668Z,94675.88
2023-03-17T06:20:33.286Z,94679.94
2023-03-17T06:23:05.487Z,94678.72
2023-03-17T06:25:34.686Z,94675.78
2023-03-17T06:28:03.946Z,94673.88
2023-03-17T06:30:32.964Z,94682.19
2023-03-17T06:33:00.382Z,94679.78
2023-03-17T06:35:27.458Z,94679.25
2023-03-17T06:37:55.328Z,94688.88
2023-03-17T06:40:22.043Z,94689.69
2023-03-17T06:42:48.874Z,94682.91
2023-03-17T06:45:15.954Z,94689.75
2023-03-17T06:47:43.543Z,94691.91
2023-03-17T06:50:12.111Z,94691.91
2023-03-17T06:52:39.617Z,94682.88
2023-03-17T06:55:07.278Z,94692.84
2023-03-17T06:57:34.125Z,94695.06
2023-03-17T07:00:01.137Z,94693.34
2023-03-17T07:02:28.022Z,94698.31
2023-03-17T07:04:54.917Z,94702.59
2023-03-17T07:07:21.756Z,94696.41
2023-03-17T07:09:48.597Z,94704.50
2023-03-17T07:12:15.800Z,94700.00
2023-03-17T07:14:42.349Z,94703.50
2023-03-17T07:17:13.047Z,94708.34
2023-03-17T07:19:40.761Z,94706.47
2023-03-17T07:22:09.452Z,94709.50
2023-03-17T07:24:36.261Z,94708.72
2023-03-17T07:27:02.850Z,94707.38
2023-03-17T07:29:29.501Z,94696.69
2023-03-17T07:31:56.384Z,94697.56
2023-03-17T07:34:23.153Z,94701.69
2023-03-17T07:36:49.926Z,94705.34
2023-03-17T07:39:16.857Z,94710.84
2023-03-17T07:41:44.268Z,94705.22
2023-03-17T07:44:11.513Z,94708.75
2023-03-17T07:46:39.004Z,94714.00
2023-03-17T07:49:06.127Z,94715.50
2023-03-17T07:51:33.029Z,94722.25
2023-03-17T07:54:04.901Z,94721.69
2023-03-17T07:56:32.230Z,94715.50
2023-03-17T07:58:59.922Z,94718.28
2023-03-17T08:01:27.952Z,94708.03
2023-03-17T08:03:56.589Z,94709.69
2023-03-17T08:06:25.500Z,94704.59
2023-03-17T08:08:53.662Z,94699.72
2023-03-17T08:11:21.207Z,94705.78
2023-03-17T08:13:48.118Z,94694.47
2023-03-17T08:16:14.724Z,94696.56
2023-03-17T08:18:41.668Z,94695.44
2023-03-17T08:21:08.374Z,94691.69
2023-03-17T08:23:35.406Z,94696.59
2023-03-17T08:26:04.209Z,94693.63
2023-03-17T08:28:32.504Z,94696.94
2023-03-17T08:31:20.863Z,94689.72
2023-03-17T08:33:51.323Z,94694.69
2023-03-17T08:36:19.654Z,94700.22
2023-03-17T08:38:47.520Z,94694.22
2023-03-17T08:41:19.015Z,94704.06
2023-03-17T08:43:46.937Z,94707.81
2023-03-17T08:46:16.855Z,94696.44
2023-03-17T08:48:45.333Z,94704.19
2023-03-17T08:51:12.550Z,94699.66
2023-03-17T08:53:39.911Z,94697.38
2023-03-17T08:56:08.420Z,94700.38
2023-03-17T08:58:39.179Z,94684.91
2023-03-17T09:01:07.014Z,94683.81
2023-03-17T09:03:34.379Z,94681.22
2023-03-17T09:06:01.015Z,94679.72
2023-03-17T09:08:28.285Z,94676.75
2023-03-17T09:10:54.946Z,94670.69
2023-03-17T09:13:22.724Z,94671.47
2023-03-17T09:15:52.025Z,94675.78
2023-03-17T09:18:21.940Z,94674.69
2023-03-17T09:20:48.972Z,94671.09
2023-03-17T09:23:15.951Z,94667.09
2023-03-17T09:25:42.880Z,94668.59
2023-03-17T09:28:11.813Z,94669.94
2023-03-17T09:30:42.571Z,94667.34
2023-03-17T09:33:11.886Z,94665.88
2023-03-17T09:35:40.353Z,94664.16
2023-03-17T09:38:08.115Z,94666.16
2023-03-17T09:41:02.580Z,94667.06
2023-03-17T09:44:02.037Z,94673.84
2023-03-17T09:47:10.190Z,94668.50
2023-03-17T09:49:58.475Z,94660.88
2023-03-17T09:52:30.653Z,94656.44
2023-03-17T09:54:57.602Z,94645.38
2023-03-17T09:57:36.966Z,94646.59
2023-03-17T10:00:15.613Z,94640.94
2023-03-17T10:02:43.239Z,94639.38
2023-03-17T10:05:26.942Z,94643.59
2023-03-17T10:08:29.470Z,94642.25
2023-03-17T10:11:09.448Z,94639.91
2023-03-17T10:13:36.886Z,94643.47
2023-03-17T10:16:09.886Z,94644.91
2023-03-17T10:18:46.629Z,94645.63
2023-03-17T10:21:18.388Z,94649.47
2023-03-17T10:23:46.060Z,94645.50
2023-03-17T10:26:33.090Z,94642.88
2023-03-17T10:29:04.274Z,94646.47
2023-03-17T10:31:34.799Z,94641.69
2023-03-17T10:34:14.316Z,94636.03
2023-03-17T10:37:03.336Z,94636.56
2023-03-17T10:39:32.703Z,94637.59
2023-03-17T10:42:30.706Z,94635.81
2023-03-17T10:45:25.754Z,94633.25
2023-03-17T10:47:57.314Z,94627.41
2023-03-17T10:50:32.527Z,94627.34
2023-03-17T10:53:00.768Z,94629.66
2023-03-17T10:55:42.507Z,94624.66
2023-03-17T10:58:18.596Z,94623.09
2023-03-17T11:00:58.104Z,94624.41
2023-03-17T11:03:31.483Z,94624.59
2023-03-17T11:06:05.358Z,94625.41
2023-03-17T11:08:35.518Z,94623.97
2023-03-17T11:11:07.308Z,94616.13
2023-03-17T11:13:34.017Z,94615.81
2023-03-17T11:16:17.603Z,94612.66
2023-03-17T11:18:45.892Z,94606.66
2023-03-17T11:21:19.798Z,94597.75
2023-03-17T11:23:49.394Z,94592.72
2023-03-17T11:26:39.325Z,94592.94
2023-03-17T11:29:05.877Z,94586.84
2023-03-17T11:31:42.525Z,94583.72
2023-03-17T11:34:14.089Z,94583.91
2023-03-17T11:37:00.260Z,94577.91
2023-03-17T11:39:34.572Z,94580.50
2023-03-17T11:42:19.656Z,94578.97
2023-03-17T11:45:14.533Z,94576.56
2023-03-17T11:47:47.033Z,94576.66
2023-03-17T11:50:16.752Z,94565.22
2023-03-17T11:52:46.365Z,94563.22
2023-03-17T11:55:36.600Z,94564.03
2023-03-17T11:58:10.542Z,94565.03
2023-03-17T12:00:46.001Z,94569.41
2023-03-17T12:03:15.920Z,94562.81
2023-03-17T12:05:45.701Z,94561.56
2023-03-17T12:08:30.113Z,94553.47
2023-03-17T12:11:01.071Z,94557.94
2023-03-17T12:13:40.280Z,94553.34
2023-03-17T12:16:11.260Z,94560.25
2023-03-17T12:18:42.293Z,94546.56
2023-03-17T12:21:36.874Z,94545.59
2023-03-17T12:24:09.988Z,94542.44
2023-03-17T12:26:49.088Z,94537.56
2023-03-17T12:29:35.733Z,94539.59
2023-03-17T12:32:12.434Z,94543.97
2023-03-17T12:34:39.087Z,94537.28
2023-03-17T12:37:05.898Z,94537.44
2023-03-17T12:39:34.897Z,94545.50
2023-03-17T12:42:29.376Z,94547.84
2023-03-17T12:45:26.705Z,94538.69
2023-03-17T12:48:18.290Z,94535.13
2023-03-17T12:51:06.851Z,94536.69
2023-03-17T12:53:46.642Z,94530.31
2023-03-17T12:56:31.173Z,94522.53
2023-03-17T12:59:09.886Z,94518.31
2023-03-17T13:01:55.527Z,94515.97
2023-03-17T13:04:37.783Z,94516.59
2023-03-17T13:07:19.413Z,94516.69
2023-03-17T13:10:13.602Z,94513.72
2023-03-17T13:12:40.127Z,94515.38
2023-03-17T13:15:30.509Z,94514.22
2023-03-17T13:18:12.570Z,94518.81
2023-03-17T13:20:59.661Z,94519.31
2023-03-17T13:23:41.755Z,94519.25
2023-03-17T13:26:12.759Z,94514.78
2023-03-17T13:28:41.140Z,94513.81
2023-03-17T13:31:14.712Z,94507.47
2023-03-17T13:33:54.567Z,94507.94
2023-03-17T13:36:30.535Z,94508.22
2023-03-17T13:39:24.861Z,94512.78
2023-03-17T13:42:01.109Z,94508.97
2023-03-17T13:44:59.539Z,94508.91
2023-03-17T13:47:34.189Z,94497.44
2023-03-17T13:50:08.421Z,94490.91
2023-03-17T13:52:42.963Z,94492.31
2023-03-17T13:55:18.740Z,94484.75
2023-03-17T13:57:54.211Z,94488.28
2023-03-17T14:00:27.781Z,94494.19
2023-03-17T14:03:05.440Z,94488.69
2023-03-17T14:05:37.926Z,94490.06
2023-03-17T14:08:13.999Z,94475.34
2023-03-17T14:10:40.681Z,94477.53
2023-03-17T14:13:25.136Z,94474.81
2023-03-17T14:16:04.832Z,94478.16
2023-03-17T14:18:38.693Z,94475.44
2023-03-17T14:21:11.743Z,94480.94
2023-03-17T14:23:38.572Z,94475.56
2023-03-17T14:26:07.243Z,94476.69
2023-03-17T14:28:34.928Z,94468.38
2023-03-17T14:31:02.928Z,94464.84
2023-03-17T14:33:32.132Z,94464.31
2023-03-17T14:36:01.416Z,94458.88
2023-03-17T14:38:37.413Z,94451.28
2023-03-17T14:41:18.976Z,94450.75
2023-03-17T14:43:46.324Z,94451.59
2023-03-17T14:46:14.810Z,94449.66
2023-03-17T14:48:43.759Z,94448.28
2023-03-17T14:51:25.314Z,94450.72
2023-03-17T14:53:54.122Z,94444.44
2023-03-17T14:56:27.020Z,94444.00
2023-03-17T14:58:54.124Z,94436.28
2023-03-17T15:01:57.275Z,94442.84
2023-03-17T15:04:27.700Z,94433.25
2023-03-17T15:07:03.133Z,94430.25
2023-03-17T15:09:38.552Z,94430.22
2023-03-17T15:12:16.183Z,94425.28
2023-03-17T15:14:45.967Z,94429.00
2023-03-17T15:17:21.952Z,94435.91
2023-03-17T15:19:54.928Z,94436.63
2023-03-17T15:22:26.590Z,94432.41
2023-03-17T15:25:03.472Z,94430.50
2023-03-17T15:27:31.389Z,94436.06
2023-03-17T15:29:58.418Z,94432.13
2023-03-17T15:32:27.023Z,94421.16
2023-03-17T15:34:56.992Z,94424.00
2023-03-17T15:37:28.664Z,94417.91
2023-03-17T15:39:56.731Z,94412.22
2023-03-17T15:42:30.530Z,94415.69
2023-03-17T15:44:57.436Z,94411.66
2023-03-17T15:47:27.104Z,94411.91
2023-03-17T15:49:58.524Z,94413.84
2023-03-17T15:52:27.656Z,94410.53
2023-03-17T15:54:56.220Z,94407.00
2023-03-17T15:57:23.806Z,94401.66
2023-03-17T15:59:50.716Z,94402.31
2023-03-17T16:02:25.507Z,94403.63
2023-03-17T16:04:52.750Z,94397.84
2023-03-17T16:07:19.671Z,94402.03
2023-03-17T16:09:46.396Z,94404.31
2023-03-17T16:12:13.833Z,94401.41
2023-03-17T16:14:41.386Z,94403.22
2023-03-17T16:17:19.496Z,94403.25
2023-03-17T16:19:46.209Z,94395.63
2023-03-17T16:22:35.260Z,94406.72
2023-03-17T16:25:03.152Z,94404.03
2023-03-17T16:27:29.807Z,94400.72
2023-03-17T16:29:56.500Z,94395.72
2023-03-17T16:32:23.246Z,94401.84
2023-03-17T16:34:49.788Z,94395.13
2023-03-17T16:37:16.643Z,94397.88
2023-03-17T16:39:43.274Z,94389.56
2023-03-17T16:42:23.979Z,94391.75
2023-03-17T16:44:50.806Z,94396.69
2023-03-17T16:47:17.423Z,94393.75
2023-03-17T16:49:44.203Z,94395.53
2023-03-17T16:52:12.058Z,94391.31
2023-03-17T16:54:38.751Z,94400.84
2023-03-17T16:57:07.777Z,94395.38
2023-03-17T16:59:34.657Z,94400.31
2023-03-17T17:02:01.910Z,94394.44
2023-03-17T17:04:28.690Z,94399.91
2023-03-17T17:06:56.612Z,94402.19
2023-03-17T17:09:23.283Z,94401.41
2023-03-17T17:11:49.893Z,94403.72
2023-03-17T17:14:16.546Z,94408.06
2023-03-17T17:16:43.190Z,94405.81
2023-03-17T17:19:14.923Z,94406.25
2023-03-17T17:21:41.634Z,94409.03
2023-03-17T17:24:12.915Z,94411.75
2023-03-17T17:26:39.695Z,94410.81
2023-03-17T17:29:06.334Z,94407.69
2023-03-17T17:31:33.526Z,94408.63
2023-03-17T17:34:00.291Z,94415.66
2023-03-17T17:36:27.574Z,94414.31
2023-03-17T17:38:54.293Z,94413.84
2023-03-17T17:41:21.692Z,94415.72
2023-03-17T17:43:48.849Z,94417.25
2023-03-17T17:46:21.973Z,94421.19
2023-03-17T17:48:49.352Z,94422.09
2023-03-17T17:51:16.217Z,94423.19
2023-03-17T17:53:43.143Z,94426.63
2023-03-17T17:56:15.597Z,94432.00
2023-03-17T17:58:43.001Z,94427.34
2023-03-17T18:01:12.330Z,94430.03
2023-03-17T18:03:41.573Z,94431.03
2023-03-17T18:06:08.885Z,94430.28
2023-03-17T18:08:35.812Z,94436.06
2023-03-17T18:11:02.625Z,94430.09
2023-03-17T18:13:29.245Z,94444.59
2023-03-17T18:15:56.269Z,94445.84
2023-03-17T18:18:23.028Z,94456.97
2023-03-17T18:24:09.817Z,94452.34
2023-03-17T18:26:36.985Z,94456.72
2023-03-17T18:29:03.646Z,94457.00
2023-03-17T18:31:34.778Z,94458.94
2023-03-17T18:34:16.428Z,94465.81
2023-03-17T18:36:44.907Z,94466.63
2023-03-17T18:39:11.500Z,94468.13
2023-03-17T18:41:38.448Z,94466.06
2023-03-17T18:44:07.437Z,94463.59
2023-03-17T18:46:34.098Z,94466.09
2023-03-17T18:49:01.117Z,94475.81
2023-03-17T18:51:27.944Z,94464.41
2023-03-17T18:53:55.221Z,94470.66
2023-03-17T18:56:23.838Z,94466.97
2023-03-17T18:58:50.719Z,94468.63
2023-03-17T19:01:18.108Z,94466.72
2023-03-17T19:03:44.863Z,94463.56
2023-03-17T19:06:17.233Z,94474.44
2023-03-17T19:08:44.560Z,94467.50
2023-03-17T19:11:14.387Z,94474.19
2023-03-17T19:13:42.377Z,94472.34
2023-03-17T19:16:09.621Z,94474.88
2023-03-17T19:18:41.381Z,94469.41
2023-03-17T19:21:09.773Z,94472.69
2023-03-17T19:23:38.261Z,94469.88
2023-03-17T19:26:05.995Z,94472.59
2023-03-17T19:28:33.744Z,94471.56
2023-03-17T19:31:00.879Z,94473.81
2023-03-17T19:33:28.919Z,94467.06
2023-03-17T19:35:59.981Z,94463.88
2023-03-17T19:38:27.297Z,94466.69
2023-03-17T19:40:54.400Z,94465.25
2023-03-17T19:43:39.031Z,94469.94
2023-03-17T19:46:07.918Z,94470.00
2023-03-17T19:48:36.410Z,94470.72
2023-03-17T19:51:03.367Z,94471.81
2023-03-17T19:53:30.489Z,94477.81
2023-03-17T19:55:57.218Z,94478.47
2023-03-17T19:58:23.954Z,94478.59
2023-03-17T20:00:51.434Z,94475.22
2023-03-17T20:03:18.143Z,94479.47
2023-03-17T20:05:46.343Z,94481.88
2023-03-17T20:08:13.321Z,94484.41
2023-03-17T20:10:40.267Z,94485.75
2023-03-17T20:13:06.864Z,94487.25
2023-03-17T20:15:33.798Z,94491.69
2023-03-17T20:18:00.822Z,94493.53
2023-03-17T20:20:27.865Z,94494.88
2023-03-17T20:22:54.385Z,94501.22
2023-03-17T20:25:21.890Z,94513.94
2023-03-17T20:27:48.494Z,94517.59
2023-03-17T20:30:15.298Z,94517.19
2023-03-17T20:32:42.019Z,94517.34
2023-03-17T20:35:09.244Z,94511.66
2023-03-17T20:37:36.000Z,94515.69
2023-03-17T20:40:05.332Z,94513.56
2023-03-17T20:42:32.147Z,94520.81
2023-03-17T20:44:59.082Z,94510.97
2023-03-17T20:47:26.582Z,94516.47
2023-03-17T20:49:56.436Z,94522.38
2023-03-17T20:52:23.103Z,94522.31
2023-03-17T20:54:49.992Z,94527.56
2023-03-17T20:57:16.885Z,94526.53
2023-03-17T20:59:43.902Z,94523.34
2023-03-17T21:02:17.015Z,94531.19
2023-03-17T21:04:47.763Z,94528.22
2023-03-17T21:07:20.707Z,94529.09
2023-03-17T21:09:48.222Z,94529.03
2023-03-17T21:12:18.134Z,94525.47
2023-03-17T21:14:46.703Z,94526.66
2023-03-17T21:17:13.718Z,94527.97
2023-03-17T21:19:40.574Z,94528.75
2023-03-17T21:22:07.753Z,94525.94
2023-03-17T21:24:37.248Z,94515.88
2023-03-17T21:27:06.324Z,94552.94
2023-03-17T21:29:34.658Z,94524.13
2023-03-17T21:32:02.265Z,94557.25
2023-03-17T21:34:30.680Z,94549.44
2023-03-17T21:36:58.506Z,94544.78
2023-03-17T21:39:28.964Z,94553.13
2023-03-17T21:41:57.611Z,94549.59
2023-03-17T21:44:24.708Z,94559.69
2023-03-17T21:46:51.277Z,94560.19
2023-03-17T21:49:18.918Z,94553.06
2023-03-17T21:51:46.865Z,94551.44
2023-03-17T21:54:14.365Z,94555.38
2023-03-17T21:56:41.830Z,94548.03
2023-03-17T21:59:14.070Z,94554.19
2023-03-17T22:01:41.720Z,94552.84
2023-03-17T22:04:09.099Z,94557.25
2023-03-17T22:06:36.070Z,94554.19
2023-03-17T22:09:04.576Z,94552.63
2023-03-17T22:11:31.710Z,94554.56
2023-03-17T22:13:59.076Z,94556.38
2023-03-17T22:16:26.012Z,94561.81
2023-03-17T22:18:52.944Z,94560.56
2023-03-17T22:21:21.453Z,94566.22
2023-03-17T22:23:48.359Z,94563.63
2023-03-17T22:26:20.225Z,94556.13
2023-03-17T22:28:47.351Z,94566.59
2023-03-17T22:31:17.555Z,94565.53
2023-03-17T22:33:50.033Z,94570.00
2023-03-17T22:36:17.866Z,94569.28
2023-03-17T22:38:46.151Z,94566.53
2023-03-17T22:41:16.157Z,94567.94
2023-03-17T22:43:43.113Z,94569.94
2023-03-17T22:46:10.483Z,94577.13
2023-03-17T22:48:37.474Z,94579.88
2023-03-17T22:51:07.103Z,94579.09
2023-03-17T22:53:34.388Z,94578.63
2023-03-17T22:56:01.314Z,94584.09
2023-03-17T22:58:28.752Z,94584.44
2023-03-17T23:00:56.446Z,94582.94
2023-03-17T23:03:24.919Z,94589.09
2023-03-17T23:05:56.992Z,94588.44
2023-03-17T23:08:24.881Z,94588.69
2023-03-17T23:10:51.984Z,94593.94
2023-03-17T23:13:19.656Z,94586.47
2023-03-17T23:15:47.316Z,94588.53
2023-03-17T23:18:14.184Z,94588.97
2023-03-17T23:20:41.910Z,94599.44
2023-03-17T23:23:10.931Z,94593.91
2023-03-17T23:25:38.446Z,94591.13
2023-03-17T23:28:06.818Z,94599.81
2023-03-17T23:30:35.492Z,94591.72
2023-03-17T23:33:02.931Z,94598.34
2023-03-17T23:35:29.572Z,94593.72
2023-03-17T23:37:56.960Z,94600.59
2023-03-17T23:40:23.646Z,94597.44
2023-03-17T23:42:50.561Z,94606.63
2023-03-17T23:45:18.226Z,94608.34
2023-03-17T23:47:46.798Z,94606.16
2023-03-17T23:50:15.714Z,94612.03
2023-03-17T23:52:43.180Z,94608.78
2023-03-17T23:55:11.896Z,94611.72
2023-03-17T23:57:39.201Z,94609.63
